sensor_id;sensor_type;location;lat;lon;timestamp;pressure;altitude;pressure_sealevel;temperature;humidity
28306;BME280;7516;43.570;1.448;2022-08-11T00:01:18;99362.63;;;28.25;48.26
28306;BME280;7516;43.570;1.448;2022-08-11T00:03:52;99364.41;;;28.16;48.58
28306;BME280;7516;43.570;1.448;2022-08-11T00:06:24;99363.91;;;28.14;50.13
28306;BME280;7516;43.570;1.448;2022-08-11T00:08:53;99356.97;;;28.08;50.32
28306;BME280;7516;43.570;1.448;2022-08-11T00:11:30;99360.28;;;28.05;50.04
28306;BME280;7516;43.570;1.448;2022-08-11T00:14:00;99356.78;;;28.04;49.96
28306;BME280;7516;43.570;1.448;2022-08-11T00:16:29;99350.97;;;27.97;50.76
28306;BME280;7516;43.570;1.448;2022-08-11T00:18:58;99349.16;;;27.93;51.47
28306;BME280;7516;43.570;1.448;2022-08-11T00:21:27;99346.13;;;27.81;53.36
28306;BME280;7516;43.570;1.448;2022-08-11T00:23:57;99349.41;;;27.78;53.99
28306;BME280;7516;43.570;1.448;2022-08-11T00:26:27;99351.59;;;27.76;53.76
28306;BME280;7516;43.570;1.448;2022-08-11T00:28:55;99355.09;;;27.76;54.81
28306;BME280;7516;43.570;1.448;2022-08-11T00:31:28;99353.50;;;27.75;55.35
28306;BME280;7516;43.570;1.448;2022-08-11T00:33:58;99350.38;;;27.68;55.59
28306;BME280;7516;43.570;1.448;2022-08-11T00:36:28;99356.06;;;27.66;56.09
28306;BME280;7516;43.570;1.448;2022-08-11T00:39:04;99347.25;;;27.61;57.10
28306;BME280;7516;43.570;1.448;2022-08-11T00:41:35;99353.28;;;27.53;57.39
28306;BME280;7516;43.570;1.448;2022-08-11T00:44:44;99359.19;;;27.55;58.12
28306;BME280;7516;43.570;1.448;2022-08-11T00:47:23;99354.59;;;27.55;58.73
28306;BME280;7516;43.570;1.448;2022-08-11T00:50:08;99355.84;;;27.44;59.64
28306;BME280;7516;43.570;1.448;2022-08-11T00:53:07;99358.28;;;27.41;59.54
28306;BME280;7516;43.570;1.448;2022-08-11T01:01:57;99364.84;;;27.34;62.58
28306;BME280;7516;43.570;1.448;2022-08-11T01:10:47;99365.03;;;27.19;65.68
28306;BME280;7516;43.570;1.448;2022-08-11T01:17:02;99366.78;;;27.10;67.22
28306;BME280;7516;43.570;1.448;2022-08-11T01:20:09;99379.78;;;27.03;68.76
28306;BME280;7516;43.570;1.448;2022-08-11T01:23:13;99382.56;;;26.98;69.24
28306;BME280;7516;43.570;1.448;2022-08-11T01:29:10;99379.09;;;26.92;70.98
28306;BME280;7516;43.570;1.448;2022-08-11T01:32:13;99375.91;;;26.90;71.24
28306;BME280;7516;43.570;1.448;2022-08-11T01:35:26;99372.69;;;26.88;72.52
28306;BME280;7516;43.570;1.448;2022-08-11T01:38:36;99383.44;;;26.88;72.30
28306;BME280;7516;43.570;1.448;2022-08-11T01:41:31;99382.41;;;26.84;72.99
28306;BME280;7516;43.570;1.448;2022-08-11T01:47:30;99383.31;;;26.75;73.90
28306;BME280;7516;43.570;1.448;2022-08-11T01:50:24;99385.81;;;26.71;73.81
28306;BME280;7516;43.570;1.448;2022-08-11T01:53:11;99388.50;;;26.71;73.99
28306;BME280;7516;43.570;1.448;2022-08-11T01:55:48;99397.63;;;26.70;74.21
28306;BME280;7516;43.570;1.448;2022-08-11T01:58:28;99391.00;;;26.63;74.42
28306;BME280;7516;43.570;1.448;2022-08-11T02:01:05;99394.38;;;26.73;74.24
28306;BME280;7516;43.570;1.448;2022-08-11T02:03:45;99390.47;;;26.60;74.12
28306;BME280;7516;43.570;1.448;2022-08-11T02:06:25;99394.66;;;26.72;74.00
28306;BME280;7516;43.570;1.448;2022-08-11T02:09:23;99392.88;;;26.62;74.37
28306;BME280;7516;43.570;1.448;2022-08-11T02:11:57;99397.91;;;26.69;74.43
28306;BME280;7516;43.570;1.448;2022-08-11T02:14:30;99400.16;;;26.62;75.20
28306;BME280;7516;43.570;1.448;2022-08-11T02:17:14;99402.56;;;26.63;75.36
28306;BME280;7516;43.570;1.448;2022-08-11T02:19:51;99410.56;;;26.68;75.48
28306;BME280;7516;43.570;1.448;2022-08-11T02:22:45;99412.38;;;26.49;76.09
28306;BME280;7516;43.570;1.448;2022-08-11T02:25:37;99409.66;;;26.54;75.68
28306;BME280;7516;43.570;1.448;2022-08-11T02:28:12;99410.38;;;26.59;75.47
28306;BME280;7516;43.570;1.448;2022-08-11T02:30:56;99422.22;;;26.58;75.75
28306;BME280;7516;43.570;1.448;2022-08-11T02:33:41;99419.31;;;26.55;76.78
28306;BME280;7516;43.570;1.448;2022-08-11T02:36:14;99412.28;;;26.59;76.22
28306;BME280;7516;43.570;1.448;2022-08-11T02:38:50;99415.53;;;26.56;76.43
28306;BME280;7516;43.570;1.448;2022-08-11T02:41:25;99422.91;;;26.45;76.89
28306;BME280;7516;43.570;1.448;2022-08-11T02:44:31;99417.19;;;26.52;76.51
28306;BME280;7516;43.570;1.448;2022-08-11T02:47:06;99423.47;;;26.42;77.71
28306;BME280;7516;43.570;1.448;2022-08-11T02:49:43;99420.34;;;26.30;77.63
28306;BME280;7516;43.570;1.448;2022-08-11T02:52:35;99428.59;;;26.39;76.66
28306;BME280;7516;43.570;1.448;2022-08-11T02:55:20;99429.88;;;26.46;76.53
28306;BME280;7516;43.570;1.448;2022-08-11T02:57:54;99427.22;;;26.41;76.58
28306;BME280;7516;43.570;1.448;2022-08-11T03:00:23;99433.88;;;26.49;76.13
28306;BME280;7516;43.570;1.448;2022-08-11T03:03:09;99422.28;;;26.53;76.47
28306;BME280;7516;43.570;1.448;2022-08-11T03:06:07;99426.22;;;26.32;77.28
28306;BME280;7516;43.570;1.448;2022-08-11T03:08:47;99430.19;;;26.40;76.79
28306;BME280;7516;43.570;1.448;2022-08-11T03:11:29;99427.31;;;26.31;77.76
28306;BME280;7516;43.570;1.448;2022-08-11T03:14:18;99431.84;;;26.36;77.89
28306;BME280;7516;43.570;1.448;2022-08-11T03:17:20;99418.97;;;26.33;77.22
28306;BME280;7516;43.570;1.448;2022-08-11T03:20:05;99422.19;;;26.35;77.76
28306;BME280;7516;43.570;1.448;2022-08-11T03:22:44;99425.16;;;26.33;77.23
28306;BME280;7516;43.570;1.448;2022-08-11T03:25:20;99430.00;;;26.31;77.58
28306;BME280;7516;43.570;1.448;2022-08-11T03:28:03;99431.88;;;26.31;77.65
28306;BME280;7516;43.570;1.448;2022-08-11T03:30:49;99430.59;;;26.23;77.49
28306;BME280;7516;43.570;1.448;2022-08-11T03:33:22;99435.34;;;26.36;77.41
28306;BME280;7516;43.570;1.448;2022-08-11T03:36:20;99441.81;;;26.35;77.20
28306;BME280;7516;43.570;1.448;2022-08-11T03:39:06;99436.72;;;26.34;77.68
28306;BME280;7516;43.570;1.448;2022-08-11T03:41:41;99443.41;;;26.36;77.48
28306;BME280;7516;43.570;1.448;2022-08-11T03:44:27;99445.81;;;26.38;78.12
28306;BME280;7516;43.570;1.448;2022-08-11T03:47:34;99442.56;;;26.41;77.36
28306;BME280;7516;43.570;1.448;2022-08-11T03:50:11;99448.47;;;26.43;77.88
28306;BME280;7516;43.570;1.448;2022-08-11T03:52:48;99456.09;;;26.26;78.48
28306;BME280;7516;43.570;1.448;2022-08-11T03:55:27;99453.16;;;26.27;78.47
28306;BME280;7516;43.570;1.448;2022-08-11T03:58:23;99457.19;;;26.24;78.45
28306;BME280;7516;43.570;1.448;2022-08-11T04:01:28;99451.81;;;26.24;79.02
28306;BME280;7516;43.570;1.448;2022-08-11T04:07:43;99469.81;;;26.24;78.85
28306;BME280;7516;43.570;1.448;2022-08-11T04:10:50;99473.66;;;26.13;78.44
28306;BME280;7516;43.570;1.448;2022-08-11T04:16:47;99481.44;;;26.14;78.57
28306;BME280;7516;43.570;1.448;2022-08-11T04:19:53;99481.13;;;26.21;77.82
28306;BME280;7516;43.570;1.448;2022-08-11T04:22:58;99488.19;;;26.12;78.22
28306;BME280;7516;43.570;1.448;2022-08-11T04:25:49;99483.31;;;26.19;78.08
28306;BME280;7516;43.570;1.448;2022-08-11T04:28:49;99488.94;;;26.17;78.63
28306;BME280;7516;43.570;1.448;2022-08-11T04:31:36;99486.28;;;26.12;77.76
28306;BME280;7516;43.570;1.448;2022-08-11T04:34:43;99485.47;;;26.17;77.21
28306;BME280;7516;43.570;1.448;2022-08-11T04:37:42;99487.69;;;26.05;78.23
28306;BME280;7516;43.570;1.448;2022-08-11T04:43:48;99496.47;;;26.15;77.93
28306;BME280;7516;43.570;1.448;2022-08-11T04:46:49;99488.94;;;26.17;77.59
28306;BME280;7516;43.570;1.448;2022-08-11T04:49:53;99484.94;;;26.15;77.75
28306;BME280;7516;43.570;1.448;2022-08-11T04:53:12;99486.81;;;26.14;77.71
28306;BME280;7516;43.570;1.448;2022-08-11T04:56:23;99485.47;;;26.17;77.79
28306;BME280;7516;43.570;1.448;2022-08-11T04:59:41;99487.38;;;26.11;77.85
28306;BME280;7516;43.570;1.448;2022-08-11T05:03:02;99487.88;;;26.18;77.60
28306;BME280;7516;43.570;1.448;2022-08-11T05:09:20;99489.47;;;26.19;76.84
28306;BME280;7516;43.570;1.448;2022-08-11T05:12:18;99492.72;;;26.16;77.64
28306;BME280;7516;43.570;1.448;2022-08-11T05:14:50;99504.00;;;26.18;77.33
28306;BME280;7516;43.570;1.448;2022-08-11T05:17:39;99488.47;;;26.10;78.01
28306;BME280;7516;43.570;1.448;2022-08-11T05:20:49;99488.41;;;26.20;77.39
28306;BME280;7516;43.570;1.448;2022-08-11T05:23:40;99486.75;;;26.24;77.20
28306;BME280;7516;43.570;1.448;2022-08-11T05:26:28;99491.31;;;26.29;77.37
28306;BME280;7516;43.570;1.448;2022-08-11T05:29:30;99493.19;;;26.29;77.49
28306;BME280;7516;43.570;1.448;2022-08-11T05:32:20;99494.00;;;26.29;77.32
28306;BME280;7516;43.570;1.448;2022-08-11T05:35:07;99503.16;;;26.28;77.37
28306;BME280;7516;43.570;1.448;2022-08-11T05:37:42;99506.34;;;26.25;78.04
28306;BME280;7516;43.570;1.448;2022-08-11T05:40:27;99501.53;;;25.83;79.27
28306;BME280;7516;43.570;1.448;2022-08-11T05:43:14;99507.00;;;25.63;79.75
28306;BME280;7516;43.570;1.448;2022-08-11T05:46:01;99505.38;;;25.57;80.33
28306;BME280;7516;43.570;1.448;2022-08-11T05:48:50;99506.19;;;25.52;81.43
28306;BME280;7516;43.570;1.448;2022-08-11T05:51:37;99505.41;;;25.52;81.87
28306;BME280;7516;43.570;1.448;2022-08-11T05:54:26;99509.97;;;25.51;81.87
28306;BME280;7516;43.570;1.448;2022-08-11T05:57:19;99502.44;;;25.53;81.74
28306;BME280;7516;43.570;1.448;2022-08-11T05:59:48;99502.19;;;25.55;82.17
28306;BME280;7516;43.570;1.448;2022-08-11T06:02:16;99497.88;;;25.59;81.89
28306;BME280;7516;43.570;1.448;2022-08-11T06:04:44;99493.03;;;25.61;82.04
28306;BME280;7516;43.570;1.448;2022-08-11T06:07:13;99496.25;;;25.58;82.64
28306;BME280;7516;43.570;1.448;2022-08-11T06:09:49;99501.09;;;25.61;82.99
28306;BME280;7516;43.570;1.448;2022-08-11T06:12:19;99500.81;;;25.62;81.97
28306;BME280;7516;43.570;1.448;2022-08-11T06:14:51;99490.88;;;25.68;81.92
28306;BME280;7516;43.570;1.448;2022-08-11T06:17:23;99498.94;;;25.68;82.09
28306;BME280;7516;43.570;1.448;2022-08-11T06:19:51;99482.25;;;25.71;82.53
28306;BME280;7516;43.570;1.448;2022-08-11T06:22:25;99489.22;;;25.72;82.46
28306;BME280;7516;43.570;1.448;2022-08-11T06:24:56;99490.28;;;25.76;82.13
28306;BME280;7516;43.570;1.448;2022-08-11T06:27:25;99482.75;;;25.78;81.88
28306;BME280;7516;43.570;1.448;2022-08-11T06:29:54;99487.03;;;25.84;82.51
28306;BME280;7516;43.570;1.448;2022-08-11T06:32:26;99490.22;;;25.86;81.88
28306;BME280;7516;43.570;1.448;2022-08-11T06:35:15;99491.81;;;25.92;82.10
28306;BME280;7516;43.570;1.448;2022-08-11T06:37:57;99494.19;;;25.99;81.49
28306;BME280;7516;43.570;1.448;2022-08-11T06:40:35;99491.22;;;26.00;82.09
28306;BME280;7516;43.570;1.448;2022-08-11T06:43:10;99491.69;;;26.07;81.95
28306;BME280;7516;43.570;1.448;2022-08-11T06:45:50;99501.91;;;26.10;81.79
28306;BME280;7516;43.570;1.448;2022-08-11T06:48:22;99488.69;;;26.14;82.02
28306;BME280;7516;43.570;1.448;2022-08-11T06:50:52;99492.72;;;26.16;81.51
28306;BME280;7516;43.570;1.448;2022-08-11T06:53:43;99484.91;;;26.20;81.47
28306;BME280;7516;43.570;1.448;2022-08-11T06:56:14;99492.69;;;26.27;80.55
28306;BME280;7516;43.570;1.448;2022-08-11T06:59:00;99485.94;;;26.29;81.04
28306;BME280;7516;43.570;1.448;2022-08-11T07:01:55;99495.56;;;26.35;80.72
28306;BME280;7516;43.570;1.448;2022-08-11T07:04:31;99476.97;;;26.39;80.29
28306;BME280;7516;43.570;1.448;2022-08-11T07:07:31;99493.34;;;26.42;80.26
28306;BME280;7516;43.570;1.448;2022-08-11T07:10:32;99477.97;;;26.48;79.87
28306;BME280;7516;43.570;1.448;2022-08-11T07:13:21;99476.09;;;26.48;79.51
28306;BME280;7516;43.570;1.448;2022-08-11T07:16:07;99479.31;;;26.50;80.55
28306;BME280;7516;43.570;1.448;2022-08-11T07:18:37;99476.88;;;26.54;80.01
28306;BME280;7516;43.570;1.448;2022-08-11T07:21:26;99490.53;;;26.57;80.07
28306;BME280;7516;43.570;1.448;2022-08-11T07:24:16;99477.59;;;26.59;80.32
28306;BME280;7516;43.570;1.448;2022-08-11T07:27:03;99478.66;;;26.64;79.98
28306;BME280;7516;43.570;1.448;2022-08-11T07:29:51;99482.09;;;26.69;79.83
28306;BME280;7516;43.570;1.448;2022-08-11T07:32:26;99488.53;;;26.73;79.20
28306;BME280;7516;43.570;1.448;2022-08-11T07:34:58;99493.31;;;26.76;78.49
28306;BME280;7516;43.570;1.448;2022-08-11T07:37:30;99493.28;;;26.81;78.51
28306;BME280;7516;43.570;1.448;2022-08-11T07:40:00;99492.41;;;26.86;77.71
28306;BME280;7516;43.570;1.448;2022-08-11T07:42:31;99501.81;;;26.88;77.09
28306;BME280;7516;43.570;1.448;2022-08-11T07:45:04;99490.22;;;26.93;77.70
28306;BME280;7516;43.570;1.448;2022-08-11T07:47:50;99489.38;;;26.98;77.42
28306;BME280;7516;43.570;1.448;2022-08-11T07:50:40;99493.59;;;27.04;77.08
28306;BME280;7516;43.570;1.448;2022-08-11T07:53:26;99488.47;;;27.07;76.94
28306;BME280;7516;43.570;1.448;2022-08-11T07:55:57;99501.84;;;27.12;75.57
28306;BME280;7516;43.570;1.448;2022-08-11T07:58:26;99492.94;;;27.17;75.17
28306;BME280;7516;43.570;1.448;2022-08-11T08:01:18;99499.56;;;27.24;76.40
28306;BME280;7516;43.570;1.448;2022-08-11T08:04:05;99492.03;;;27.26;74.68
28306;BME280;7516;43.570;1.448;2022-08-11T08:06:51;99489.78;;;27.33;75.08
28306;BME280;7516;43.570;1.448;2022-08-11T08:09:37;99486.22;;;27.38;75.28
28306;BME280;7516;43.570;1.448;2022-08-11T08:12:24;99479.69;;;27.44;74.15
28306;BME280;7516;43.570;1.448;2022-08-11T08:15:11;99471.03;;;27.47;73.78
28306;BME280;7516;43.570;1.448;2022-08-11T08:17:59;99482.03;;;27.51;72.65
28306;BME280;7516;43.570;1.448;2022-08-11T08:20:29;99472.81;;;27.57;72.69
28306;BME280;7516;43.570;1.448;2022-08-11T08:23:00;99477.03;;;27.63;72.93
28306;BME280;7516;43.570;1.448;2022-08-11T08:25:31;99476.69;;;27.69;72.21
28306;BME280;7516;43.570;1.448;2022-08-11T08:28:00;99475.53;;;27.76;72.22
28306;BME280;7516;43.570;1.448;2022-08-11T08:30:29;99481.63;;;27.81;71.66
28306;BME280;7516;43.570;1.448;2022-08-11T08:33:19;99481.84;;;27.85;71.11
28306;BME280;7516;43.570;1.448;2022-08-11T08:35:49;99484.47;;;27.90;71.56
28306;BME280;7516;43.570;1.448;2022-08-11T08:38:36;99493.50;;;27.99;71.10
28306;BME280;7516;43.570;1.448;2022-08-11T08:41:05;99505.31;;;28.03;70.21
28306;BME280;7516;43.570;1.448;2022-08-11T08:43:34;99488.25;;;28.07;69.24
28306;BME280;7516;43.570;1.448;2022-08-11T08:46:04;99491.69;;;28.13;68.80
28306;BME280;7516;43.570;1.448;2022-08-11T08:48:37;99479.50;;;28.16;68.47
28306;BME280;7516;43.570;1.448;2022-08-11T08:51:09;99498.03;;;28.22;69.00
28306;BME280;7516;43.570;1.448;2022-08-11T08:54:00;99496.06;;;28.28;68.73
28306;BME280;7516;43.570;1.448;2022-08-11T08:56:30;99506.97;;;28.36;68.39
28306;BME280;7516;43.570;1.448;2022-08-11T08:59:02;99496.84;;;28.47;67.83
28306;BME280;7516;43.570;1.448;2022-08-11T09:01:32;99493.53;;;28.50;68.19
28306;BME280;7516;43.570;1.448;2022-08-11T09:04:06;99485.38;;;28.55;67.50
28306;BME280;7516;43.570;1.448;2022-08-11T09:06:37;99485.25;;;28.60;66.27
28306;BME280;7516;43.570;1.448;2022-08-11T09:09:09;99485.69;;;28.67;66.62
28306;BME280;7516;43.570;1.448;2022-08-11T09:11:39;99497.47;;;28.71;65.71
28306;BME280;7516;43.570;1.448;2022-08-11T09:14:19;99491.22;;;28.76;65.05
28306;BME280;7516;43.570;1.448;2022-08-11T09:16:47;99481.94;;;28.82;65.19
28306;BME280;7516;43.570;1.448;2022-08-11T09:19:18;99486.16;;;28.88;64.82
28306;BME280;7516;43.570;1.448;2022-08-11T09:21:48;99481.25;;;28.90;64.52
28306;BME280;7516;43.570;1.448;2022-08-11T09:24:38;99480.06;;;28.96;64.35
28306;BME280;7516;43.570;1.448;2022-08-11T09:27:24;99475.56;;;29.05;64.28
28306;BME280;7516;43.570;1.448;2022-08-11T09:29:53;99480.06;;;29.10;63.11
28306;BME280;7516;43.570;1.448;2022-08-11T09:32:21;99480.75;;;29.15;63.45
28306;BME280;7516;43.570;1.448;2022-08-11T09:34:51;99480.06;;;29.24;62.95
28306;BME280;7516;43.570;1.448;2022-08-11T09:37:20;99471.88;;;29.29;63.06
28306;BME280;7516;43.570;1.448;2022-08-11T09:40:08;99472.84;;;29.33;63.34
28306;BME280;7516;43.570;1.448;2022-08-11T09:42:55;99475.59;;;29.46;62.15
28306;BME280;7516;43.570;1.448;2022-08-11T09:45:44;99472.25;;;29.49;61.34
28306;BME280;7516;43.570;1.448;2022-08-11T09:48:16;99476.44;;;29.55;60.42
28306;BME280;7516;43.570;1.448;2022-08-11T09:50:48;99482.84;;;29.60;60.08
28306;BME280;7516;43.570;1.448;2022-08-11T09:53:17;99477.84;;;29.67;59.67
28306;BME280;7516;43.570;1.448;2022-08-11T09:55:45;99479.00;;;29.74;59.38
28306;BME280;7516;43.570;1.448;2022-08-11T09:58:14;99475.22;;;29.75;58.54
28306;BME280;7516;43.570;1.448;2022-08-11T10:00:44;99476.72;;;29.81;58.62
28306;BME280;7516;43.570;1.448;2022-08-11T10:03:14;99486.59;;;29.86;58.71
28306;BME280;7516;43.570;1.448;2022-08-11T10:05:46;99473.19;;;29.95;58.43
28306;BME280;7516;43.570;1.448;2022-08-11T10:08:32;99472.59;;;29.98;57.22
28306;BME280;7516;43.570;1.448;2022-08-11T10:11:03;99469.75;;;30.03;56.26
28306;BME280;7516;43.570;1.448;2022-08-11T10:13:33;99479.34;;;30.09;56.05
28306;BME280;7516;43.570;1.448;2022-08-11T10:16:24;99469.50;;;30.13;55.84
28306;BME280;7516;43.570;1.448;2022-08-11T10:18:52;99465.28;;;30.20;56.32
28306;BME280;7516;43.570;1.448;2022-08-11T10:21:27;99460.22;;;30.27;56.18
28306;BME280;7516;43.570;1.448;2022-08-11T10:23:57;99466.19;;;30.38;55.14
28306;BME280;7516;43.570;1.448;2022-08-11T10:26:44;99461.75;;;30.42;54.55
28306;BME280;7516;43.570;1.448;2022-08-11T10:29:24;99470.34;;;30.44;53.88
28306;BME280;7516;43.570;1.448;2022-08-11T10:32:11;99465.34;;;30.51;53.50
28306;BME280;7516;43.570;1.448;2022-08-11T10:34:58;99467.13;;;30.56;53.74
28306;BME280;7516;43.570;1.448;2022-08-11T10:37:29;99465.56;;;30.63;54.05
28306;BME280;7516;43.570;1.448;2022-08-11T10:40:00;99465.91;;;30.71;52.94
28306;BME280;7516;43.570;1.448;2022-08-11T10:42:28;99463.88;;;30.76;52.37
28306;BME280;7516;43.570;1.448;2022-08-11T10:45:14;99469.16;;;30.81;52.30
28306;BME280;7516;43.570;1.448;2022-08-11T10:48:00;99455.31;;;30.83;50.38
28306;BME280;7516;43.570;1.448;2022-08-11T10:50:28;99467.47;;;30.94;50.54
28306;BME280;7516;43.570;1.448;2022-08-11T10:53:17;99457.78;;;31.01;50.76
28306;BME280;7516;43.570;1.448;2022-08-11T10:56:03;99452.19;;;31.07;50.22
28306;BME280;7516;43.570;1.448;2022-08-11T10:58:49;99451.94;;;31.17;49.20
28306;BME280;7516;43.570;1.448;2022-08-11T11:01:22;99453.25;;;31.19;49.56
28306;BME280;7516;43.570;1.448;2022-08-11T11:03:55;99447.34;;;31.26;48.79
28306;BME280;7516;43.570;1.448;2022-08-11T11:06:32;99449.59;;;31.32;49.38
28306;BME280;7516;43.570;1.448;2022-08-11T11:09:05;99440.84;;;31.35;49.64
28306;BME280;7516;43.570;1.448;2022-08-11T11:11:37;99444.19;;;31.41;49.13
28306;BME280;7516;43.570;1.448;2022-08-11T11:14:26;99440.53;;;31.46;48.97
28306;BME280;7516;43.570;1.448;2022-08-11T11:17:12;99446.28;;;31.53;48.50
28306;BME280;7516;43.570;1.448;2022-08-11T11:19:59;99432.56;;;31.58;47.76
28306;BME280;7516;43.570;1.448;2022-08-11T11:22:30;99437.41;;;31.69;47.77
28306;BME280;7516;43.570;1.448;2022-08-11T11:25:18;99443.94;;;31.77;47.55
28306;BME280;7516;43.570;1.448;2022-08-11T11:28:03;99431.34;;;31.81;47.58
28306;BME280;7516;43.570;1.448;2022-08-11T11:30:43;99439.00;;;31.96;45.52
28306;BME280;7516;43.570;1.448;2022-08-11T11:33:20;99430.69;;;32.01;44.58
28306;BME280;7516;43.570;1.448;2022-08-11T11:35:59;99441.19;;;32.11;44.46
28306;BME280;7516;43.570;1.448;2022-08-11T11:38:34;99427.50;;;32.17;45.59
28306;BME280;7516;43.570;1.448;2022-08-11T11:41:03;99427.63;;;32.29;45.10
28306;BME280;7516;43.570;1.448;2022-08-11T11:43:48;99422.34;;;32.41;43.40
28306;BME280;7516;43.570;1.448;2022-08-11T11:46:16;99418.00;;;32.48;43.77
28306;BME280;7516;43.570;1.448;2022-08-11T11:48:44;99411.44;;;32.58;44.27
28306;BME280;7516;43.570;1.448;2022-08-11T11:51:12;99413.19;;;32.71;44.73
28306;BME280;7516;43.570;1.448;2022-08-11T11:53:42;99409.78;;;32.74;44.39
28306;BME280;7516;43.570;1.448;2022-08-11T11:56:12;99405.59;;;32.85;43.14
28306;BME280;7516;43.570;1.448;2022-08-11T11:58:41;99407.97;;;32.87;43.52
28306;BME280;7516;43.570;1.448;2022-08-11T12:01:27;99397.06;;;32.96;44.14
28306;BME280;7516;43.570;1.448;2022-08-11T12:03:57;99395.56;;;33.07;43.09
28306;BME280;7516;43.570;1.448;2022-08-11T12:06:25;99388.16;;;33.16;42.82
28306;BME280;7516;43.570;1.448;2022-08-11T12:08:55;99391.44;;;33.30;42.39
28306;BME280;7516;43.570;1.448;2022-08-11T12:11:26;99390.19;;;33.48;40.96
28306;BME280;7516;43.570;1.448;2022-08-11T12:14:14;99385.97;;;33.59;42.22
28306;BME280;7516;43.570;1.448;2022-08-11T12:16:43;99385.97;;;33.59;41.42
28306;BME280;7516;43.570;1.448;2022-08-11T12:19:13;99377.09;;;33.62;41.38
28306;BME280;7516;43.570;1.448;2022-08-11T12:21:42;99379.19;;;33.66;41.54
28306;BME280;7516;43.570;1.448;2022-08-11T12:24:24;99372.41;;;33.72;42.57
28306;BME280;7516;43.570;1.448;2022-08-11T12:27:10;99370.78;;;33.71;41.36
28306;BME280;7516;43.570;1.448;2022-08-11T12:29:49;99365.44;;;33.83;42.43
28306;BME280;7516;43.570;1.448;2022-08-11T12:32:18;99366.63;;;33.94;42.05
28306;BME280;7516;43.570;1.448;2022-08-11T12:34:46;99356.31;;;33.99;42.11
28306;BME280;7516;43.570;1.448;2022-08-11T12:37:19;99355.84;;;33.97;41.83
28306;BME280;7516;43.570;1.448;2022-08-11T12:39:50;99360.38;;;33.93;42.13
28306;BME280;7516;43.570;1.448;2022-08-11T12:42:38;99351.91;;;33.95;42.40
28306;BME280;7516;43.570;1.448;2022-08-11T12:45:25;99355.28;;;34.04;42.88
28306;BME280;7516;43.570;1.448;2022-08-11T12:48:00;99348.28;;;34.15;42.60
28306;BME280;7516;43.570;1.448;2022-08-11T12:50:50;99350.13;;;34.23;42.59
28306;BME280;7516;43.570;1.448;2022-08-11T12:53:39;99351.97;;;34.31;42.74
28306;BME280;7516;43.570;1.448;2022-08-11T12:56:10;99342.91;;;34.27;42.35
28306;BME280;7516;43.570;1.448;2022-08-11T12:58:57;99334.91;;;34.22;42.17
28306;BME280;7516;43.570;1.448;2022-08-11T13:01:44;99338.44;;;34.23;42.10
28306;BME280;7516;43.570;1.448;2022-08-11T13:04:29;99336.22;;;34.25;42.24
28306;BME280;7516;43.570;1.448;2022-08-11T13:07:15;99337.94;;;34.29;41.73
28306;BME280;7516;43.570;1.448;2022-08-11T13:09:45;99335.63;;;34.31;42.38
28306;BME280;7516;43.570;1.448;2022-08-11T13:12:13;99332.91;;;34.31;42.61
28306;BME280;7516;43.570;1.448;2022-08-11T13:15:01;99328.84;;;34.38;42.42
28306;BME280;7516;43.570;1.448;2022-08-11T13:17:29;99336.44;;;34.44;41.45
28306;BME280;7516;43.570;1.448;2022-08-11T13:19:58;99331.56;;;34.50;41.66
28306;BME280;7516;43.570;1.448;2022-08-11T13:22:27;99332.50;;;34.54;40.94
28306;BME280;7516;43.570;1.448;2022-08-11T13:24:57;99327.03;;;34.54;41.62
28306;BME280;7516;43.570;1.448;2022-08-11T13:27:25;99326.72;;;34.55;40.72
28306;BME280;7516;43.570;1.448;2022-08-11T13:29:52;99325.66;;;34.60;40.98
28306;BME280;7516;43.570;1.448;2022-08-11T13:32:44;99315.69;;;34.64;41.02
28306;BME280;7516;43.570;1.448;2022-08-11T13:35:13;99316.59;;;34.68;40.63
28306;BME280;7516;43.570;1.448;2022-08-11T13:37:41;99318.63;;;34.71;39.61
28306;BME280;7516;43.570;1.448;2022-08-11T13:40:12;99317.88;;;34.83;40.18
28306;BME280;7516;43.570;1.448;2022-08-11T13:42:40;99307.72;;;34.95;39.27
28306;BME280;7516;43.570;1.448;2022-08-11T13:45:09;99306.00;;;35.03;38.68
28306;BME280;7516;43.570;1.448;2022-08-11T13:47:38;99302.44;;;35.15;38.66
28306;BME280;7516;43.570;1.448;2022-08-11T13:50:08;99302.78;;;35.25;38.46
28306;BME280;7516;43.570;1.448;2022-08-11T13:52:39;99291.28;;;35.32;38.17
28306;BME280;7516;43.570;1.448;2022-08-11T13:55:09;99298.25;;;35.45;37.98
28306;BME280;7516;43.570;1.448;2022-08-11T13:57:48;99295.84;;;35.56;37.71
28306;BME280;7516;43.570;1.448;2022-08-11T14:00:17;99299.91;;;35.62;37.44
28306;BME280;7516;43.570;1.448;2022-08-11T14:02:47;99296.03;;;35.63;37.09
28306;BME280;7516;43.570;1.448;2022-08-11T14:05:18;99288.22;;;35.61;36.73
28306;BME280;7516;43.570;1.448;2022-08-11T14:07:50;99281.06;;;35.57;36.64
28306;BME280;7516;43.570;1.448;2022-08-11T14:10:21;99293.56;;;35.58;36.53
28306;BME280;7516;43.570;1.448;2022-08-11T14:12:54;99285.81;;;35.60;36.11
28306;BME280;7516;43.570;1.448;2022-08-11T14:15:43;99280.91;;;35.65;36.03
28306;BME280;7516;43.570;1.448;2022-08-11T14:18:17;99277.69;;;35.75;35.81
28306;BME280;7516;43.570;1.448;2022-08-11T14:20:51;99281.41;;;35.83;35.62
28306;BME280;7516;43.570;1.448;2022-08-11T14:23:40;99272.78;;;35.97;35.49
28306;BME280;7516;43.570;1.448;2022-08-11T14:26:09;99273.75;;;36.04;35.45
28306;BME280;7516;43.570;1.448;2022-08-11T14:28:53;99279.50;;;36.15;34.92
28306;BME280;7516;43.570;1.448;2022-08-11T14:31:24;99276.94;;;36.22;34.80
28306;BME280;7516;43.570;1.448;2022-08-11T14:33:54;99275.97;;;36.30;34.93
28306;BME280;7516;43.570;1.448;2022-08-11T14:36:24;99270.38;;;36.42;34.57
28306;BME280;7516;43.570;1.448;2022-08-11T14:38:52;99267.25;;;36.60;34.46
28306;BME280;7516;43.570;1.448;2022-08-11T14:41:22;99259.44;;;36.74;33.76
28306;BME280;7516;43.570;1.448;2022-08-11T14:44:08;99261.53;;;36.80;34.31
28306;BME280;7516;43.570;1.448;2022-08-11T14:46:55;99259.88;;;36.76;33.82
28306;BME280;7516;43.570;1.448;2022-08-11T14:49:33;99251.72;;;36.79;34.41
28306;BME280;7516;43.570;1.448;2022-08-11T14:52:06;99242.75;;;36.79;33.61
28306;BME280;7516;43.570;1.448;2022-08-11T14:54:35;99249.09;;;36.83;34.38